sensor_id;sensor_type;location;lat;lon;timestamp;temperature;humidity
5346;DHT22;2695;49.444;11.054;2023-03-01T00:01:19;1.00;98.60
5346;DHT22;2695;49.444;11.054;2023-03-01T00:03:50;1.00;98.60
5346;DHT22;2695;49.444;11.054;2023-03-01T00:06:19;1.00;98.70
5346;DHT22;2695;49.444;11.054;2023-03-01T00:08:48;1.00;98.70
5346;DHT22;2695;49.444;11.054;2023-03-01T00:11:17;0.90;98.70
5346;DHT22;2695;49.444;11.054;2023-03-01T00:13:48;0.90;98.80
5346;DHT22;2695;49.444;11.054;2023-03-01T00:16:20;0.90;99.00
5346;DHT22;2695;49.444;11.054;2023-03-01T00:18:50;0.90;99.00
5346;DHT22;2695;49.444;11.054;2023-03-01T00:21:20;0.80;99.10
5346;DHT22;2695;49.444;11.054;2023-03-01T00:23:49;0.80;99.50
5346;DHT22;2695;49.444;11.054;2023-03-01T00:26:19;0.80;99.20
5346;DHT22;2695;49.444;11.054;2023-03-01T00:28:47;0.80;99.40
5346;DHT22;2695;49.444;11.054;2023-03-01T00:31:19;0.80;99.50
5346;DHT22;2695;49.444;11.054;2023-03-01T00:33:47;0.80;99.60
5346;DHT22;2695;49.444;11.054;2023-03-01T00:36:17;0.70;99.60
5346;DHT22;2695;49.444;11.054;2023-03-01T00:38:45;0.70;99.80
5346;DHT22;2695;49.444;11.054;2023-03-01T00:41:15;0.70;99.90
5346;DHT22;2695;49.444;11.054;2023-03-01T00:43:44;0.70;99.90
5346;DHT22;2695;49.444;11.054;2023-03-01T00:46:14;0.70;99.90
5346;DHT22;2695;49.444;11.054;2023-03-01T00:48:43;1.10;99.90
5346;DHT22;2695;49.444;11.054;2023-03-01T00:51:13;1.10;99.90
5346;DHT22;2695;49.444;11.054;2023-03-01T00:53:43;0.70;99.90
5346;DHT22;2695;49.444;11.054;2023-03-01T00:56:13;0.70;99.90
5346;DHT22;2695;49.444;11.054;2023-03-01T00:58:41;0.60;99.90
5346;DHT22;2695;49.444;11.054;2023-03-01T01:01:11;0.60;99.90
5346;DHT22;2695;49.444;11.054;2023-03-01T01:03:46;0.50;99.90
5346;DHT22;2695;49.444;11.054;2023-03-01T01:06:16;0.50;99.90
5346;DHT22;2695;49.444;11.054;2023-03-01T01:08:46;0.50;99.90
5346;DHT22;2695;49.444;11.054;2023-03-01T01:11:15;0.50;99.90
5346;DHT22;2695;49.444;11.054;2023-03-01T01:13:44;0.50;99.90
5346;DHT22;2695;49.444;11.054;2023-03-01T01:16:12;0.40;99.90
5346;DHT22;2695;49.444;11.054;2023-03-01T01:18:40;0.40;99.90
5346;DHT22;2695;49.444;11.054;2023-03-01T01:21:11;0.40;99.90
5346;DHT22;2695;49.444;11.054;2023-03-01T01:23:41;0.40;99.90
5346;DHT22;2695;49.444;11.054;2023-03-01T01:26:12;0.30;99.90
5346;DHT22;2695;49.444;11.054;2023-03-01T01:28:41;0.30;99.90
5346;DHT22;2695;49.444;11.054;2023-03-01T01:31:09;0.30;99.90
5346;DHT22;2695;49.444;11.054;2023-03-01T01:33:37;0.30;99.90
5346;DHT22;2695;49.444;11.054;2023-03-01T01:36:07;0.20;99.90
5346;DHT22;2695;49.444;11.054;2023-03-01T01:38:36;0.30;99.90
5346;DHT22;2695;49.444;11.054;2023-03-01T01:41:06;0.20;99.90
5346;DHT22;2695;49.444;11.054;2023-03-01T01:43:37;0.20;99.90
5346;DHT22;2695;49.444;11.054;2023-03-01T01:46:16;0.20;99.90
5346;DHT22;2695;49.444;11.054;2023-03-01T01:48:49;0.40;99.90
5346;DHT22;2695;49.444;11.054;2023-03-01T01:51:19;0.20;99.90
5346;DHT22;2695;49.444;11.054;2023-03-01T01:53:52;0.20;99.90
5346;DHT22;2695;49.444;11.054;2023-03-01T01:56:22;0.10;99.90
5346;DHT22;2695;49.444;11.054;2023-03-01T01:58:53;0.20;99.90
5346;DHT22;2695;49.444;11.054;2023-03-01T02:01:21;0.20;99.90
5346;DHT22;2695;49.444;11.054;2023-03-01T02:03:50;0.20;99.90
5346;DHT22;2695;49.444;11.054;2023-03-01T02:06:28;0.20;99.90
5346;DHT22;2695;49.444;11.054;2023-03-01T02:09:02;0.10;99.90
5346;DHT22;2695;49.444;11.054;2023-03-01T02:11:32;0.10;99.90
5346;DHT22;2695;49.444;11.054;2023-03-01T02:14:02;0.10;99.90
5346;DHT22;2695;49.444;11.054;2023-03-01T02:16:30;0.10;99.90
5346;DHT22;2695;49.444;11.054;2023-03-01T02:18:59;0.10;99.90
5346;DHT22;2695;49.444;11.054;2023-03-01T02:21:40;0.10;99.90
5346;DHT22;2695;49.444;11.054;2023-03-01T02:24:17;0.10;99.90
5346;DHT22;2695;49.444;11.054;2023-03-01T02:26:52;0.10;99.90
5346;DHT22;2695;49.444;11.054;2023-03-01T02:29:23;0.20;99.90
5346;DHT22;2695;49.444;11.054;2023-03-01T02:31:52;0.20;99.90
5346;DHT22;2695;49.444;11.054;2023-03-01T02:34:24;0.10;99.90
5346;DHT22;2695;49.444;11.054;2023-03-01T02:36:56;0.20;99.90
5346;DHT22;2695;49.444;11.054;2023-03-01T02:39:27;0.10;99.90
5346;DHT22;2695;49.444;11.054;2023-03-01T02:41:56;0.10;99.90
5346;DHT22;2695;49.444;11.054;2023-03-01T02:44:26;0.10;99.90
5346;DHT22;2695;49.444;11.054;2023-03-01T02:46:56;0.10;99.90
5346;DHT22;2695;49.444;11.054;2023-03-01T02:49:26;0.10;99.90
5346;DHT22;2695;49.444;11.054;2023-03-01T02:52:22;0.00;99.90
5346;DHT22;2695;49.444;11.054;2023-03-01T02:54:57;0.00;99.90
5346;DHT22;2695;49.444;11.054;2023-03-01T02:57:28;0.00;99.90
5346;DHT22;2695;49.444;11.054;2023-03-01T03:00:02;0.00;99.90
5346;DHT22;2695;49.444;11.054;2023-03-01T03:02:34;0.00;99.90
5346;DHT22;2695;49.444;11.054;2023-03-01T03:05:09;0.00;99.90
5346;DHT22;2695;49.444;11.054;2023-03-01T03:07:40;0.00;99.90
5346;DHT22;2695;49.444;11.054;2023-03-01T03:10:13;-0.10;99.90
5346;DHT22;2695;49.444;11.054;2023-03-01T03:12:42;0.00;99.90
5346;DHT22;2695;49.444;11.054;2023-03-01T03:15:11;0.00;99.90
5346;DHT22;2695;49.444;11.054;2023-03-01T03:17:41;0.00;99.90
5346;DHT22;2695;49.444;11.054;2023-03-01T03:20:14;-0.10;99.90
5346;DHT22;2695;49.444;11.054;2023-03-01T03:22:46;-0.10;99.90
5346;DHT22;2695;49.444;11.054;2023-03-01T03:25:15;0.00;99.90
5346;DHT22;2695;49.444;11.054;2023-03-01T03:27:45;-0.10;99.90
5346;DHT22;2695;49.444;11.054;2023-03-01T03:30:16;-0.10;99.90
5346;DHT22;2695;49.444;11.054;2023-03-01T03:32:46;-0.10;99.90
5346;DHT22;2695;49.444;11.054;2023-03-01T03:35:20;-0.10;99.90
5346;DHT22;2695;49.444;11.054;2023-03-01T03:37:48;-0.10;99.90
5346;DHT22;2695;49.444;11.054;2023-03-01T03:40:34;-0.10;99.90
5346;DHT22;2695;49.444;11.054;2023-03-01T03:43:04;0.50;99.90
5346;DHT22;2695;49.444;11.054;2023-03-01T03:45:34;-0.10;99.90
5346;DHT22;2695;49.444;11.054;2023-03-01T03:48:04;0.00;99.90
5346;DHT22;2695;49.444;11.054;2023-03-01T03:50:32;-0.10;99.90
5346;DHT22;2695;49.444;11.054;2023-03-01T03:53:01;0.00;99.90
5346;DHT22;2695;49.444;11.054;2023-03-01T03:55:30;0.30;99.90
5346;DHT22;2695;49.444;11.054;2023-03-01T03:58:01;0.00;99.90
5346;DHT22;2695;49.444;11.054;2023-03-01T04:00:39;0.00;99.90
5346;DHT22;2695;49.444;11.054;2023-03-01T04:03:08;0.00;99.90
5346;DHT22;2695;49.444;11.054;2023-03-01T04:05:37;0.00;99.90
5346;DHT22;2695;49.444;11.054;2023-03-01T04:08:07;0.00;99.90
5346;DHT22;2695;49.444;11.054;2023-03-01T04:10:37;0.00;99.90
5346;DHT22;2695;49.444;11.054;2023-03-01T04:13:06;0.90;99.90
5346;DHT22;2695;49.444;11.054;2023-03-01T04:15:35;0.00;99.90
5346;DHT22;2695;49.444;11.054;2023-03-01T04:18:04;0.70;99.90
5346;DHT22;2695;49.444;11.054;2023-03-01T04:20:34;0.00;99.90
5346;DHT22;2695;49.444;11.054;2023-03-01T04:23:06;0.00;99.90
5346;DHT22;2695;49.444;11.054;2023-03-01T04:25:46;0.40;99.90
5346;DHT22;2695;49.444;11.054;2023-03-01T04:28:16;0.00;99.90
5346;DHT22;2695;49.444;11.054;2023-03-01T04:30:46;0.50;99.90
5346;DHT22;2695;49.444;11.054;2023-03-01T04:33:14;0.20;99.90
5346;DHT22;2695;49.444;11.054;2023-03-01T04:35:42;-0.10;99.90
5346;DHT22;2695;49.444;11.054;2023-03-01T04:38:11;0.20;99.90
5346;DHT22;2695;49.444;11.054;2023-03-01T04:40:39;-0.10;99.90
5346;DHT22;2695;49.444;11.054;2023-03-01T04:43:10;1.40;99.90
5346;DHT22;2695;49.444;11.054;2023-03-01T04:45:38;-0.30;99.90
5346;DHT22;2695;49.444;11.054;2023-03-01T04:48:08;-0.20;99.90
5346;DHT22;2695;49.444;11.054;2023-03-01T04:50:36;-0.20;99.90
5346;DHT22;2695;49.444;11.054;2023-03-01T04:53:04;-0.20;99.90
5346;DHT22;2695;49.444;11.054;2023-03-01T04:55:33;0.40;99.90
5346;DHT22;2695;49.444;11.054;2023-03-01T04:58:01;-0.20;99.90
5346;DHT22;2695;49.444;11.054;2023-03-01T05:00:30;0.60;99.90
5346;DHT22;2695;49.444;11.054;2023-03-01T05:03:00;-0.20;99.90
5346;DHT22;2695;49.444;11.054;2023-03-01T05:05:32;0.20;99.90
5346;DHT22;2695;49.444;11.054;2023-03-01T05:08:03;0.60;99.90
5346;DHT22;2695;49.444;11.054;2023-03-01T05:10:34;-0.20;99.90
5346;DHT22;2695;49.444;11.054;2023-03-01T05:13:03;-0.30;99.90
5346;DHT22;2695;49.444;11.054;2023-03-01T05:15:35;-0.60;99.90
5346;DHT22;2695;49.444;11.054;2023-03-01T05:18:05;0.20;99.90
5346;DHT22;2695;49.444;11.054;2023-03-01T05:20:39;-0.20;99.90
5346;DHT22;2695;49.444;11.054;2023-03-01T05:23:08;0.00;99.90
5346;DHT22;2695;49.444;11.054;2023-03-01T05:25:36;-0.30;99.90
5346;DHT22;2695;49.444;11.054;2023-03-01T05:28:11;0.70;99.90
5346;DHT22;2695;49.444;11.054;2023-03-01T05:30:40;-0.30;99.90
5346;DHT22;2695;49.444;11.054;2023-03-01T05:33:09;-0.30;99.90
5346;DHT22;2695;49.444;11.054;2023-03-01T05:35:42;0.00;99.90
5346;DHT22;2695;49.444;11.054;2023-03-01T05:38:12;0.40;99.90
5346;DHT22;2695;49.444;11.054;2023-03-01T05:40:43;0.30;99.90
5346;DHT22;2695;49.444;11.054;2023-03-01T05:43:13;-0.40;99.90
5346;DHT22;2695;49.444;11.054;2023-03-01T05:45:41;0.30;99.90
5346;DHT22;2695;49.444;11.054;2023-03-01T05:48:12;0.00;99.90
5346;DHT22;2695;49.444;11.054;2023-03-01T05:50:43;-0.40;99.90
5346;DHT22;2695;49.444;11.054;2023-03-01T05:53:14;-0.30;99.90
5346;DHT22;2695;49.444;11.054;2023-03-01T05:55:43;-0.20;99.90
5346;DHT22;2695;49.444;11.054;2023-03-01T05:58:15;0.30;99.90
5346;DHT22;2695;49.444;11.054;2023-03-01T06:00:45;0.60;99.90
5346;DHT22;2695;49.444;11.054;2023-03-01T06:03:14;0.20;99.90
5346;DHT22;2695;49.444;11.054;2023-03-01T06:05:45;0.60;99.90
5346;DHT22;2695;49.444;11.054;2023-03-01T06:08:13;-0.10;99.90
5346;DHT22;2695;49.444;11.054;2023-03-01T06:10:42;-0.10;99.90
5346;DHT22;2695;49.444;11.054;2023-03-01T06:13:12;0.10;99.90
5346;DHT22;2695;49.444;11.054;2023-03-01T06:15:41;1.80;99.90
5346;DHT22;2695;49.444;11.054;2023-03-01T06:18:09;2.00;99.90
5346;DHT22;2695;49.444;11.054;2023-03-01T06:20:37;1.20;99.90
5346;DHT22;2695;49.444;11.054;2023-03-01T06:23:06;1.70;99.90
5346;DHT22;2695;49.444;11.054;2023-03-01T06:25:37;2.60;99.90
5346;DHT22;2695;49.444;11.054;2023-03-01T06:28:05;2.80;99.90
5346;DHT22;2695;49.444;11.054;2023-03-01T06:30:33;3.40;99.90
5346;DHT22;2695;49.444;11.054;2023-03-01T06:33:02;4.00;99.40
5346;DHT22;2695;49.444;11.054;2023-03-01T06:35:30;4.50;97.90
5346;DHT22;2695;49.444;11.054;2023-03-01T06:38:03;5.20;96.70
5346;DHT22;2695;49.444;11.054;2023-03-01T06:40:33;6.20;96.30
5346;DHT22;2695;49.444;11.054;2023-03-01T06:43:02;7.10;95.00
5346;DHT22;2695;49.444;11.054;2023-03-01T06:45:30;7.00;92.40
5346;DHT22;2695;49.444;11.054;2023-03-01T06:48:03;7.10;91.40
5346;DHT22;2695;49.444;11.054;2023-03-01T06:50:31;7.50;90.70
5346;DHT22;2695;49.444;11.054;2023-03-01T06:53:00;8.00;88.30
5346;DHT22;2695;49.444;11.054;2023-03-01T06:55:29;8.20;86.60
5346;DHT22;2695;49.444;11.054;2023-03-01T06:57:59;8.30;83.60
5346;DHT22;2695;49.444;11.054;2023-03-01T07:00:28;8.70;80.70
5346;DHT22;2695;49.444;11.054;2023-03-01T07:02:58;8.60;79.60
5346;DHT22;2695;49.444;11.054;2023-03-01T07:05:27;8.50;77.80
5346;DHT22;2695;49.444;11.054;2023-03-01T07:07:55;8.70;78.40
5346;DHT22;2695;49.444;11.054;2023-03-01T07:10:24;9.10;77.00
5346;DHT22;2695;49.444;11.054;2023-03-01T07:12:54;9.10;74.80
5346;DHT22;2695;49.444;11.054;2023-03-01T07:15:25;9.10;73.50
5346;DHT22;2695;49.444;11.054;2023-03-01T07:17:54;8.40;73.30
5346;DHT22;2695;49.444;11.054;2023-03-01T07:20:24;7.10;73.50
5346;DHT22;2695;49.444;11.054;2023-03-01T07:22:53;8.50;74.80
5346;DHT22;2695;49.444;11.054;2023-03-01T07:25:24;8.70;73.40
5346;DHT22;2695;49.444;11.054;2023-03-01T07:27:53;9.50;73.10
5346;DHT22;2695;49.444;11.054;2023-03-01T07:30:23;9.40;73.90
5346;DHT22;2695;49.444;11.054;2023-03-01T07:32:53;9.30;73.90
5346;DHT22;2695;49.444;11.054;2023-03-01T07:35:22;9.00;72.40
5346;DHT22;2695;49.444;11.054;2023-03-01T07:37:50;9.00;71.10
5346;DHT22;2695;49.444;11.054;2023-03-01T07:40:19;10.40;71.20
5346;DHT22;2695;49.444;11.054;2023-03-01T07:42:47;9.90;69.50
5346;DHT22;2695;49.444;11.054;2023-03-01T07:45:15;10.80;66.80
5346;DHT22;2695;49.444;11.054;2023-03-01T07:47:45;11.30;65.50
5346;DHT22;2695;49.444;11.054;2023-03-01T07:50:13;12.20;62.70
5346;DHT22;2695;49.444;11.054;2023-03-01T07:52:44;11.80;61.10
5346;DHT22;2695;49.444;11.054;2023-03-01T07:55:13;11.90;60.40
5346;DHT22;2695;49.444;11.054;2023-03-01T07:57:41;11.70;59.70
5346;DHT22;2695;49.444;11.054;2023-03-01T08:00:11;12.40;59.20
5346;DHT22;2695;49.444;11.054;2023-03-01T08:02:40;11.70;58.80
5346;DHT22;2695;49.444;11.054;2023-03-01T08:05:10;11.70;58.50
5346;DHT22;2695;49.444;11.054;2023-03-01T08:07:38;11.70;58.20
5346;DHT22;2695;49.444;11.054;2023-03-01T08:10:09;12.00;57.90
5346;DHT22;2695;49.444;11.054;2023-03-01T08:12:37;11.70;56.80
5346;DHT22;2695;49.444;11.054;2023-03-01T08:15:06;12.70;56.80
5346;DHT22;2695;49.444;11.054;2023-03-01T08:17:35;11.80;56.20
5346;DHT22;2695;49.444;11.054;2023-03-01T08:20:03;12.20;56.90
5346;DHT22;2695;49.444;11.054;2023-03-01T08:22:34;12.70;56.00
5346;DHT22;2695;49.444;11.054;2023-03-01T08:25:03;13.00;54.40
5346;DHT22;2695;49.444;11.054;2023-03-01T08:27:32;13.70;53.90
5346;DHT22;2695;49.444;11.054;2023-03-01T08:30:01;13.70;54.00
5346;DHT22;2695;49.444;11.054;2023-03-01T08:32:29;13.80;52.70
5346;DHT22;2695;49.444;11.054;2023-03-01T08:34:58;13.60;52.00
5346;DHT22;2695;49.444;11.054;2023-03-01T08:37:26;13.70;52.10
5346;DHT22;2695;49.444;11.054;2023-03-01T08:39:59;13.40;51.70
5346;DHT22;2695;49.444;11.054;2023-03-01T08:42:27;13.80;51.20
5346;DHT22;2695;49.444;11.054;2023-03-01T08:44:56;13.50;51.50
5346;DHT22;2695;49.444;11.054;2023-03-01T08:47:25;14.30;51.30
5346;DHT22;2695;49.444;11.054;2023-03-01T08:49:53;14.40;50.40
5346;DHT22;2695;49.444;11.054;2023-03-01T08:52:21;14.40;49.20
5346;DHT22;2695;49.444;11.054;2023-03-01T08:54:51;14.80;49.10
5346;DHT22;2695;49.444;11.054;2023-03-01T08:57:21;15.30;48.70
5346;DHT22;2695;49.444;11.054;2023-03-01T08:59:50;14.80;48.00
5346;DHT22;2695;49.444;11.054;2023-03-01T09:02:18;15.20;47.20
5346;DHT22;2695;49.444;11.054;2023-03-01T09:04:47;15.40;46.30
5346;DHT22;2695;49.444;11.054;2023-03-01T09:07:19;15.80;45.40
5346;DHT22;2695;49.444;11.054;2023-03-01T09:09:47;15.70;45.00
5346;DHT22;2695;49.444;11.054;2023-03-01T09:12:16;16.00;45.20
5346;DHT22;2695;49.444;11.054;2023-03-01T09:14:46;16.50;43.70
5346;DHT22;2695;49.444;11.054;2023-03-01T09:17:16;16.30;42.90
5346;DHT22;2695;49.444;11.054;2023-03-01T09:19:44;16.50;43.10
5346;DHT22;2695;49.444;11.054;2023-03-01T09:22:12;17.00;42.60
5346;DHT22;2695;49.444;11.054;2023-03-01T09:24:40;17.10;41.10
5346;DHT22;2695;49.444;11.054;2023-03-01T09:27:09;17.10;41.70
5346;DHT22;2695;49.444;11.054;2023-03-01T09:29:37;17.10;40.80
5346;DHT22;2695;49.444;11.054;2023-03-01T09:32:08;17.20;40.40
5346;DHT22;2695;49.444;11.054;2023-03-01T09:34:36;17.10;40.60
5346;DHT22;2695;49.444;11.054;2023-03-01T09:37:25;17.20;40.00
5346;DHT22;2695;49.444;11.054;2023-03-01T09:39:54;17.90;40.50
5346;DHT22;2695;49.444;11.054;2023-03-01T09:42:22;17.30;39.20
5346;DHT22;2695;49.444;11.054;2023-03-01T09:44:53;17.20;38.90
5346;DHT22;2695;49.444;11.054;2023-03-01T09:47:34;17.00;39.00
5346;DHT22;2695;49.444;11.054;2023-03-01T09:50:14;17.80;39.40
5346;DHT22;2695;49.444;11.054;2023-03-01T09:52:59;17.10;39.30
5346;DHT22;2695;49.444;11.054;2023-03-01T09:55:31;17.50;39.00
5346;DHT22;2695;49.444;11.054;2023-03-01T09:58:06;17.60;38.60
5346;DHT22;2695;49.444;11.054;2023-03-01T10:00:44;17.70;37.90
5346;DHT22;2695;49.444;11.054;2023-03-01T10:03:21;17.50;37.20
5346;DHT22;2695;49.444;11.054;2023-03-01T10:05:59;17.00;38.00
5346;DHT22;2695;49.444;11.054;2023-03-01T10:08:40;17.10;38.60
5346;DHT22;2695;49.444;11.054;2023-03-01T10:11:21;17.40;37.70
5346;DHT22;2695;49.444;11.054;2023-03-01T10:14:03;18.20;38.50
5346;DHT22;2695;49.444;11.054;2023-03-01T10:16:38;17.40;37.20
5346;DHT22;2695;49.444;11.054;2023-03-01T10:19:17;17.30;38.10
5346;DHT22;2695;49.444;11.054;2023-03-01T10:21:51;17.20;37.60
5346;DHT22;2695;49.444;11.054;2023-03-01T10:24:20;17.20;37.80
5346;DHT22;2695;49.444;11.054;2023-03-01T10:26:55;17.10;37.60
5346;DHT22;2695;49.444;11.054;2023-03-01T10:29:27;17.00;38.20
5346;DHT22;2695;49.444;11.054;2023-03-01T10:31:58;17.50;39.60
5346;DHT22;2695;49.444;11.054;2023-03-01T10:34:30;16.70;38.30
5346;DHT22;2695;49.444;11.054;2023-03-01T10:37:07;16.90;38.30
5346;DHT22;2695;49.444;11.054;2023-03-01T10:39:36;16.50;38.00
5346;DHT22;2695;49.444;11.054;2023-03-01T10:42:21;16.60;39.00
5346;DHT22;2695;49.444;11.054;2023-03-01T10:44:51;17.40;38.40
5346;DHT22;2695;49.444;11.054;2023-03-01T10:47:23;16.10;37.80
5346;DHT22;2695;49.444;11.054;2023-03-01T10:50:05;16.60;38.40
5346;DHT22;2695;49.444;11.054;2023-03-01T10:52:56;16.70;39.00
5346;DHT22;2695;49.444;11.054;2023-03-01T10:55:29;16.90;38.60
5346;DHT22;2695;49.444;11.054;2023-03-01T10:58:18;17.10;38.20
5346;DHT22;2695;49.444;11.054;2023-03-01T11:00:51;17.20;38.80
5346;DHT22;2695;49.444;11.054;2023-03-01T11:03:26;17.00;38.20
5346;DHT22;2695;49.444;11.054;2023-03-01T11:06:20;16.50;38.70
5346;DHT22;2695;49.444;11.054;2023-03-01T11:08:49;15.90;38.70
5346;DHT22;2695;49.444;11.054;2023-03-01T11:11:22;15.80;39.50
5346;DHT22;2695;49.444;11.054;2023-03-01T11:13:59;16.00;39.50
5346;DHT22;2695;49.444;11.054;2023-03-01T11:16:34;16.40;39.50
5346;DHT22;2695;49.444;11.054;2023-03-01T11:19:19;16.20;39.60
5346;DHT22;2695;49.444;11.054;2023-03-01T11:22:04;15.80;39.60
5346;DHT22;2695;49.444;11.054;2023-03-01T11:24:42;15.80;40.00
5346;DHT22;2695;49.444;11.054;2023-03-01T11:27:17;14.50;40.20
5346;DHT22;2695;49.444;11.054;2023-03-01T11:29:52;14.20;41.30
5346;DHT22;2695;49.444;11.054;2023-03-01T11:32:28;14.70;41.80
5346;DHT22;2695;49.444;11.054;2023-03-01T11:35:03;14.50;40.90
5346;DHT22;2695;49.444;11.054;2023-03-01T11:37:37;13.90;40.90
5346;DHT22;2695;49.444;11.054;2023-03-01T11:40:13;14.20;41.50
5346;DHT22;2695;49.444;11.054;2023-03-01T11:43:05;14.30;41.70
5346;DHT22;2695;49.444;11.054;2023-03-01T11:45:43;14.10;41.60
5346;DHT22;2695;49.444;11.054;2023-03-01T11:51:24;13.10;42.80
5346;DHT22;2695;49.444;11.054;2023-03-01T11:54:13;13.10;43.30
5346;DHT22;2695;49.444;11.054;2023-03-01T11:56:48;12.90;43.70
5346;DHT22;2695;49.444;11.054;2023-03-01T12:02:41;12.90;43.90
5346;DHT22;2695;49.444;11.054;2023-03-01T12:05:46;12.80;44.10
5346;DHT22;2695;49.444;11.054;2023-03-01T12:08:24;12.50;44.50
5346;DHT22;2695;49.444;11.054;2023-03-01T12:11:06;12.80;45.10
5346;DHT22;2695;49.444;11.054;2023-03-01T12:20:02;12.60;44.90
5346;DHT22;2695;49.444;11.054;2023-03-01T12:22:52;12.40;44.60
5346;DHT22;2695;49.444;11.054;2023-03-01T12:25:47;12.80;45.00
5346;DHT22;2695;49.444;11.054;2023-03-01T12:28:46;12.40;44.70
5346;DHT22;2695;49.444;11.054;2023-03-01T12:34:41;12.10;46.00
5346;DHT22;2695;49.444;11.054;2023-03-01T12:37:23;11.70;47.00
5346;DHT22;2695;49.444;11.054;2023-03-01T12:40:11;11.20;48.10
5346;DHT22;2695;49.444;11.054;2023-03-01T12:42:54;11.10;48.30
5346;DHT22;2695;49.444;11.054;2023-03-01T12:46:13;12.60;49.70
5346;DHT22;2695;49.444;11.054;2023-03-01T12:48:59;11.10;49.00
5346;DHT22;2695;49.444;11.054;2023-03-01T12:51:36;11.30;49.40
5346;DHT22;2695;49.444;11.054;2023-03-01T12:54:14;11.20;49.70
5346;DHT22;2695;49.444;11.054;2023-03-01T12:56:43;11.50;50.70
5346;DHT22;2695;49.444;11.054;2023-03-01T12:59:22;11.30;51.00
5346;DHT22;2695;49.444;11.054;2023-03-01T13:02:03;10.90;51.50
5346;DHT22;2695;49.444;11.054;2023-03-01T13:04:54;11.20;52.30
5346;DHT22;2695;49.444;11.054;2023-03-01T13:07:30;10.50;52.10
5346;DHT22;2695;49.444;11.054;2023-03-01T13:10:16;11.20;53.50
5346;DHT22;2695;49.444;11.054;2023-03-01T13:13:00;11.70;53.90
5346;DHT22;2695;49.444;11.054;2023-03-01T13:15:34;10.10;53.40
5346;DHT22;2695;49.444;11.054;2023-03-01T13:18:35;10.30;53.90
5346;DHT22;2695;49.444;11.054;2023-03-01T13:21:04;10.30;54.10
5346;DHT22;2695;49.444;11.054;2023-03-01T13:23:35;10.70;54.30
5346;DHT22;2695;49.444;11.054;2023-03-01T13:26:12;10.50;54.30
5346;DHT22;2695;49.444;11.054;2023-03-01T13:28:49;10.20;54.60
5346;DHT22;2695;49.444;11.054;2023-03-01T13:34:48;10.20;55.50
5346;DHT22;2695;49.444;11.054;2023-03-01T13:37:33;10.10;55.30
5346;DHT22;2695;49.444;11.054;2023-03-01T13:40:56;10.10;56.20
5346;DHT22;2695;49.444;11.054;2023-03-01T13:42:59;9.90;57.10
5346;DHT22;2695;49.444;11.054;2023-03-01T13:45:48;10.40;57.10
5346;DHT22;2695;49.444;11.054;2023-03-01T13:48:27;9.70;57.60
5346;DHT22;2695;49.444;11.054;2023-03-01T13:51:02;9.90;58.20
5346;DHT22;2695;49.444;11.054;2023-03-01T13:53:38;9.80;58.70
5346;DHT22;2695;49.444;11.054;2023-03-01T13:56:14;9.70;59.00
5346;DHT22;2695;49.444;11.054;2023-03-01T13:58:47;9.80;59.40
5346;DHT22;2695;49.444;11.054;2023-03-01T14:01:27;9.80;59.20
5346;DHT22;2695;49.444;11.054;2023-03-01T14:03:59;9.60;59.40
5346;DHT22;2695;49.444;11.054;2023-03-01T14:06:33;9.30;59.50
5346;DHT22;2695;49.444;11.054;2023-03-01T14:09:14;10.40;60.10
5346;DHT22;2695;49.444;11.054;2023-03-01T14:12:21;9.70;60.40
5346;DHT22;2695;49.444;11.054;2023-03-01T14:15:04;9.80;60.20
5346;DHT22;2695;49.444;11.054;2023-03-01T14:17:52;9.90;60.50
5346;DHT22;2695;49.444;11.054;2023-03-01T14:20:26;10.00;59.30
5346;DHT22;2695;49.444;11.054;2023-03-01T14:23:00;10.00;59.20
5346;DHT22;2695;49.444;11.054;2023-03-01T14:25:32;9.80;60.50
5346;DHT22;2695;49.444;11.054;2023-03-01T14:28:10;10.00;59.80
5346;DHT22;2695;49.444;11.054;2023-03-01T14:31:31;10.00;59.80
5346;DHT22;2695;49.444;11.054;2023-03-01T14:34:19;10.10;59.80
5346;DHT22;2695;49.444;11.054;2023-03-01T14:36:51;10.10;59.60
5346;DHT22;2695;49.444;11.054;2023-03-01T14:39:32;10.00;59.50
5346;DHT22;2695;49.444;11.054;2023-03-01T14:42:09;10.00;59.80
5346;DHT22;2695;49.444;11.054;2023-03-01T14:44:54;10.10;60.00
5346;DHT22;2695;49.444;11.054;2023-03-01T14:47:39;10.00;59.90
5346;DHT22;2695;49.444;11.054;2023-03-01T14:50:22;9.90;61.80
5346;DHT22;2695;49.444;11.054;2023-03-01T14:52:54;9.80;62.20
5346;DHT22;2695;49.444;11.054;2023-03-01T14:55:32;9.60;62.30
5346;DHT22;2695;49.444;11.054;2023-03-01T14:58:14;9.80;63.20
5346;DHT22;2695;49.444;11.054;2023-03-01T15:01:15;9.80;63.10
5346;DHT22;2695;49.444;11.054;2023-03-01T15:03:48;9.70;63.30
5346;DHT22;2695;49.444;11.054;2023-03-01T15:06:22;9.60;63.60
5346;DHT22;2695;49.444;11.054;2023-03-01T15:08:59;9.60;64.00
5346;DHT22;2695;49.444;11.054;2023-03-01T15:11:33;9.40;64.00
5346;DHT22;2695;49.444;11.054;2023-03-01T15:14:40;9.40;64.40
5346;DHT22;2695;49.444;11.054;2023-03-01T15:17:28;9.40;64.50
5346;DHT22;2695;49.444;11.054;2023-03-01T15:20:15;9.50;64.80
5346;DHT22;2695;49.444;11.054;2023-03-01T15:23:22;9.50;64.70
5346;DHT22;2695;49.444;11.054;2023-03-01T15:26:26;9.50;65.00
5346;DHT22;2695;49.444;11.054;2023-03-01T15:29:01;9.50;65.20
5346;DHT22;2695;49.444;11.054;2023-03-01T15:31:56;9.50;65.50
5346;DHT22;2695;49.444;11.054;2023-03-01T15:34:29;9.50;65.70
5346;DHT22;2695;49.444;11.054;2023-03-01T15:36:59;9.40;66.00
5346;DHT22;2695;49.444;11.054;2023-03-01T15:39:38;9.40;66.40
5346;DHT22;2695;49.444;11.054;2023-03-01T15:42:09;9.30;67.00
5346;DHT22;2695;49.444;11.054;2023-03-01T15:44:41;9.20;66.70
5346;DHT22;2695;49.444;11.054;2023-03-01T15:47:29;9.20;67.20
5346;DHT22;2695;49.444;11.054;2023-03-01T15:50:00;9.10;67.30
5346;DHT22;2695;49.444;11.054;2023-03-01T15:52:32;9.10;67.70
5346;DHT22;2695;49.444;11.054;2023-03-01T15:55:06;9.10;68.80
5346;DHT22;2695;49.444;11.054;2023-03-01T15:58:12;9.10;68.20
5346;DHT22;2695;49.444;11.054;2023-03-01T16:00:42;9.10;68.20
5346;DHT22;2695;49.444;11.054;2023-03-01T16:03:26;9.00;68.10
5346;DHT22;2695;49.444;11.054;2023-03-01T16:05:55;8.90;68.50
5346;DHT22;2695;49.444;11.054;2023-03-01T16:08:23;8.90;68.80
5346;DHT22;2695;49.444;11.054;2023-03-01T16:10:52;8.80;69.10
5346;DHT22;2695;49.444;11.054;2023-03-01T16:13:21;8.80;69.60
5346;DHT22;2695;49.444;11.054;2023-03-01T16:15:51;8.80;70.00
5346;DHT22;2695;49.444;11.054;2023-03-01T16:18:19;8.80;70.30
5346;DHT22;2695;49.444;11.054;2023-03-01T16:20:50;8.70;70.30
5346;DHT22;2695;49.444;11.054;2023-03-01T16:23:19;8.70;70.40
5346;DHT22;2695;49.444;11.054;2023-03-01T16:25:47;8.60;71.50
5346;DHT22;2695;49.444;11.054;2023-03-01T16:28:15;8.60;71.00
5346;DHT22;2695;49.444;11.054;2023-03-01T16:30:46;8.60;71.60
5346;DHT22;2695;49.444;11.054;2023-03-01T16:33:16;8.50;71.30
5346;DHT22;2695;49.444;11.054;2023-03-01T16:35:59;8.40;71.50
5346;DHT22;2695;49.444;11.054;2023-03-01T16:38:31;8.40;72.30
5346;DHT22;2695;49.444;11.054;2023-03-01T16:40:59;8.30;72.50
5346;DHT22;2695;49.444;11.054;2023-03-01T16:43:27;8.30;72.90
5346;DHT22;2695;49.444;11.054;2023-03-01T16:45:55;8.30;73.20
5346;DHT22;2695;49.444;11.054;2023-03-01T16:48:24;8.20;73.10
5346;DHT22;2695;49.444;11.054;2023-03-01T16:51:00;8.20;73.50
5346;DHT22;2695;49.444;11.054;2023-03-01T16:53:28;8.10;73.90
5346;DHT22;2695;49.444;11.054;2023-03-01T16:55:57;8.00;74.20